Airfield :
LOGIN :

Register | Disclaimer

   EN    FR    IT 

 










Legend :    VFR   Marginal VFR   IFR   Intensive IFR   Very Intensive IFR
Visi :
Ceiling :
>= 8 km
>= 3000ft
5 to 8 km
1000 to 3000 ft
1500m to 5 km
500 to 1000 ft
800 to 1500m
200 to 500 ft
< 800m
< 200 ft
Symbols :   Thunderstorms  Fog  Heavy snow  Heavy precipitations  Wind > 20 kt
SIGMETs :     Misc.  Thunderstorms  Icing  Turbulence  Mountain Waves  Volcanic Ashes






- Airport Elevation : 26 ft
- IATA code : BIA


LFKB - Bastia

CURRENT METAR :
  • 260500Z AUTO 22008KT CAVOK 13/06 Q1019 NOSIG

EXPIRED METARs :
  • 260430Z AUTO 25006KT CAVOK 12/06 Q1019 NOSIG
  • 260400Z AUTO 23004KT CAVOK 12/06 Q1019 NOSIG
  • 260330Z AUTO 22003KT 190V260 CAVOK 13/06 Q1019 NOSIG
  • 260300Z AUTO 23004KT 200V280 CAVOK 12/06 Q1019 NOSIG
  • 260230Z AUTO 24004KT CAVOK 10/05 Q1019 NOSIG

TAF AMD TAF LFKB
Valid from the 26 at 04:00 until the 27 at 03:00 UTC


260432Z 2604/2703 24004KT CAVOK TX21/2613Z TN13/2703Z
BECMG 2609/2611 36012KT
BECMG 2619/2621 23004KT BKN030
ATIS : +33 4 95 59 19 40



MET'MAP, your aeronautical weather chart ! - Copyright ORBIFLY December 2007 - Disclaimer

ORBIFLY MET'MAP TEAM :

Programming & Development : Alexandra Zaïnal
Concept & original design : Baudouin d'Aumeries
Assistance for programming : Marc-Olivier Méhu
Technical & hardware support : Manuel Goepfert

Contact : metmap@orbifly.com




SOURCES & CREDITS :

   NOAA